sensor_id;sensor_type;location;lat;lon;timestamp;P1;durP1;ratioP1;P2;durP2;ratioP2
72920;SDS011;61064;51.654;5.476;2022-09-13T00:01:47;9.70;;;4.37;;
72920;SDS011;61064;51.654;5.476;2022-09-13T00:04:13;9.77;;;4.87;;
72920;SDS011;61064;51.654;5.476;2022-09-13T00:06:38;10.57;;;5.40;;
72920;SDS011;61064;51.654;5.476;2022-09-13T00:09:03;11.03;;;5.00;;
72920;SDS011;61064;51.654;5.476;2022-09-13T00:11:29;13.63;;;5.13;;
72920;SDS011;61064;51.654;5.476;2022-09-13T00:13:55;11.07;;;5.65;;
72920;SDS011;61064;51.654;5.476;2022-09-13T00:16:24;10.02;;;5.10;;
72920;SDS011;61064;51.654;5.476;2022-09-13T00:18:51;10.93;;;5.35;;
72920;SDS011;61064;51.654;5.476;2022-09-13T00:21:17;12.30;;;5.30;;
72920;SDS011;61064;51.654;5.476;2022-09-13T00:23:45;10.17;;;5.03;;
72920;SDS011;61064;51.654;5.476;2022-09-13T00:26:14;10.48;;;5.10;;
72920;SDS011;61064;51.654;5.476;2022-09-13T00:28:44;9.82;;;5.25;;
72920;SDS011;61064;51.654;5.476;2022-09-13T00:31:10;9.95;;;5.30;;
72920;SDS011;61064;51.654;5.476;2022-09-13T00:33:36;10.03;;;5.73;;
72920;SDS011;61064;51.654;5.476;2022-09-13T00:36:05;12.95;;;5.18;;
72920;SDS011;61064;51.654;5.476;2022-09-13T00:38:36;9.95;;;5.20;;
72920;SDS011;61064;51.654;5.476;2022-09-13T00:41:04;10.45;;;5.43;;
72920;SDS011;61064;51.654;5.476;2022-09-13T00:43:39;10.13;;;5.55;;
72920;SDS011;61064;51.654;5.476;2022-09-13T00:46:37;10.33;;;5.10;;
72920;SDS011;61064;51.654;5.476;2022-09-13T00:51:38;9.90;;;5.30;;
72920;SDS011;61064;51.654;5.476;2022-09-13T00:54:08;10.93;;;5.10;;
72920;SDS011;61064;51.654;5.476;2022-09-13T00:56:40;10.02;;;5.50;;
72920;SDS011;61064;51.654;5.476;2022-09-13T00:59:14;9.33;;;5.20;;
72920;SDS011;61064;51.654;5.476;2022-09-13T01:01:51;9.95;;;5.28;;
72920;SDS011;61064;51.654;5.476;2022-09-13T01:04:19;9.10;;;4.82;;
72920;SDS011;61064;51.654;5.476;2022-09-13T01:06:48;9.93;;;4.93;;
72920;SDS011;61064;51.654;5.476;2022-09-13T01:09:15;9.48;;;4.75;;
72920;SDS011;61064;51.654;5.476;2022-09-13T01:11:47;10.47;;;5.43;;
72920;SDS011;61064;51.654;5.476;2022-09-13T01:14:19;11.45;;;4.80;;
72920;SDS011;61064;51.654;5.476;2022-09-13T01:16:48;12.00;;;5.20;;
72920;SDS011;61064;51.654;5.476;2022-09-13T01:19:14;13.43;;;5.15;;
72920;SDS011;61064;51.654;5.476;2022-09-13T01:27:22;12.95;;;4.90;;
72920;SDS011;61064;51.654;5.476;2022-09-13T01:46:25;9.48;;;4.72;;
72920;SDS011;61064;51.654;5.476;2022-09-13T01:49:11;10.63;;;4.97;;
72920;SDS011;61064;51.654;5.476;2022-09-13T01:51:46;10.15;;;5.00;;
72920;SDS011;61064;51.654;5.476;2022-09-13T01:55:01;10.77;;;5.18;;
72920;SDS011;61064;51.654;5.476;2022-09-13T02:00:08;10.80;;;4.72;;
72920;SDS011;61064;51.654;5.476;2022-09-13T02:05:31;8.88;;;4.68;;
72920;SDS011;61064;51.654;5.476;2022-09-13T02:08:19;8.90;;;4.47;;
72920;SDS011;61064;51.654;5.476;2022-09-13T02:10:54;11.33;;;5.10;;
72920;SDS011;61064;51.654;5.476;2022-09-13T02:13:25;9.82;;;5.22;;
72920;SDS011;61064;51.654;5.476;2022-09-13T02:16:00;10.85;;;5.63;;
72920;SDS011;61064;51.654;5.476;2022-09-13T02:18:34;13.07;;;5.47;;
72920;SDS011;61064;51.654;5.476;2022-09-13T02:21:04;9.65;;;5.18;;
72920;SDS011;61064;51.654;5.476;2022-09-13T02:23:42;10.40;;;5.03;;
72920;SDS011;61064;51.654;5.476;2022-09-13T02:26:11;9.40;;;4.70;;
72920;SDS011;61064;51.654;5.476;2022-09-13T02:28:40;11.05;;;5.00;;
72920;SDS011;61064;51.654;5.476;2022-09-13T02:31:09;9.05;;;5.07;;
72920;SDS011;61064;51.654;5.476;2022-09-13T02:33:41;14.55;;;6.00;;
72920;SDS011;61064;51.654;5.476;2022-09-13T02:36:28;12.10;;;5.70;;
72920;SDS011;61064;51.654;5.476;2022-09-13T02:39:04;12.38;;;5.93;;
72920;SDS011;61064;51.654;5.476;2022-09-13T02:41:36;11.43;;;5.65;;
72920;SDS011;61064;51.654;5.476;2022-09-13T02:44:10;12.43;;;5.80;;
72920;SDS011;61064;51.654;5.476;2022-09-13T02:46:43;12.98;;;5.95;;
72920;SDS011;61064;51.654;5.476;2022-09-13T02:52:08;13.82;;;5.85;;
72920;SDS011;61064;51.654;5.476;2022-09-13T02:58:08;10.23;;;5.53;;
72920;SDS011;61064;51.654;5.476;2022-09-13T03:00:16;11.13;;;5.63;;
72920;SDS011;61064;51.654;5.476;2022-09-13T03:02:41;12.43;;;5.83;;
72920;SDS011;61064;51.654;5.476;2022-09-13T03:05:09;11.52;;;5.65;;
72920;SDS011;61064;51.654;5.476;2022-09-13T03:07:35;10.77;;;5.87;;
72920;SDS011;61064;51.654;5.476;2022-09-13T03:10:05;11.63;;;5.90;;
72920;SDS011;61064;51.654;5.476;2022-09-13T03:18:28;12.48;;;6.53;;
72920;SDS011;61064;51.654;5.476;2022-09-13T03:23:46;12.57;;;6.88;;
72920;SDS011;61064;51.654;5.476;2022-09-13T03:26:24;13.50;;;6.90;;
72920;SDS011;61064;51.654;5.476;2022-09-13T03:31:56;11.13;;;6.45;;
72920;SDS011;61064;51.654;5.476;2022-09-13T03:37:16;12.30;;;7.05;;
72920;SDS011;61064;51.654;5.476;2022-09-13T03:39:54;12.43;;;7.00;;
72920;SDS011;61064;51.654;5.476;2022-09-13T03:42:27;12.57;;;6.72;;
72920;SDS011;61064;51.654;5.476;2022-09-13T03:44:58;10.35;;;6.53;;
72920;SDS011;61064;51.654;5.476;2022-09-13T03:47:27;11.40;;;6.40;;
72920;SDS011;61064;51.654;5.476;2022-09-13T03:49:56;11.85;;;6.75;;
72920;SDS011;61064;51.654;5.476;2022-09-13T03:52:23;12.07;;;6.88;;
72920;SDS011;61064;51.654;5.476;2022-09-13T03:54:49;11.67;;;6.53;;
72920;SDS011;61064;51.654;5.476;2022-09-13T03:57:18;11.13;;;6.22;;
72920;SDS011;61064;51.654;5.476;2022-09-13T03:59:49;10.70;;;6.47;;
72920;SDS011;61064;51.654;5.476;2022-09-13T04:02:19;12.82;;;6.72;;
72920;SDS011;61064;51.654;5.476;2022-09-13T04:04:47;13.20;;;7.00;;
72920;SDS011;61064;51.654;5.476;2022-09-13T04:07:14;12.03;;;6.60;;
72920;SDS011;61064;51.654;5.476;2022-09-13T04:09:41;13.20;;;6.72;;
72920;SDS011;61064;51.654;5.476;2022-09-13T04:12:07;12.77;;;7.15;;
72920;SDS011;61064;51.654;5.476;2022-09-13T04:14:34;13.17;;;6.50;;
72920;SDS011;61064;51.654;5.476;2022-09-13T04:17:00;13.32;;;6.63;;
72920;SDS011;61064;51.654;5.476;2022-09-13T04:19:25;11.43;;;6.60;;
72920;SDS011;61064;51.654;5.476;2022-09-13T04:21:51;13.50;;;6.70;;
72920;SDS011;61064;51.654;5.476;2022-09-13T04:24:18;14.27;;;6.80;;
72920;SDS011;61064;51.654;5.476;2022-09-13T04:26:48;12.43;;;7.07;;
72920;SDS011;61064;51.654;5.476;2022-09-13T04:29:15;11.52;;;6.63;;
72920;SDS011;61064;51.654;5.476;2022-09-13T04:31:42;12.15;;;6.70;;
72920;SDS011;61064;51.654;5.476;2022-09-13T04:34:10;11.80;;;6.80;;
72920;SDS011;61064;51.654;5.476;2022-09-13T04:36:37;13.33;;;7.07;;
72920;SDS011;61064;51.654;5.476;2022-09-13T04:39:03;13.40;;;7.20;;
72920;SDS011;61064;51.654;5.476;2022-09-13T04:41:28;12.05;;;6.88;;
72920;SDS011;61064;51.654;5.476;2022-09-13T04:43:54;13.17;;;7.13;;
72920;SDS011;61064;51.654;5.476;2022-09-13T04:46:19;14.80;;;7.60;;
72920;SDS011;61064;51.654;5.476;2022-09-13T04:48:48;14.52;;;7.38;;
72920;SDS011;61064;51.654;5.476;2022-09-13T04:51:15;12.10;;;6.90;;
72920;SDS011;61064;51.654;5.476;2022-09-13T04:53:41;15.20;;;7.17;;
72920;SDS011;61064;51.654;5.476;2022-09-13T04:56:10;13.73;;;7.47;;
72920;SDS011;61064;51.654;5.476;2022-09-13T04:58:39;12.02;;;7.25;;
72920;SDS011;61064;51.654;5.476;2022-09-13T05:01:07;11.85;;;7.25;;
72920;SDS011;61064;51.654;5.476;2022-09-13T05:03:34;14.37;;;7.20;;
72920;SDS011;61064;51.654;5.476;2022-09-13T05:06:01;13.75;;;6.88;;
72920;SDS011;61064;51.654;5.476;2022-09-13T05:08:31;12.90;;;7.78;;
72920;SDS011;61064;51.654;5.476;2022-09-13T05:10:57;13.93;;;7.07;;
72920;SDS011;61064;51.654;5.476;2022-09-13T05:13:23;12.87;;;6.87;;
72920;SDS011;61064;51.654;5.476;2022-09-13T05:15:49;11.70;;;7.30;;
72920;SDS011;61064;51.654;5.476;2022-09-13T05:18:14;15.13;;;7.40;;
72920;SDS011;61064;51.654;5.476;2022-09-13T05:20:40;12.65;;;6.95;;
72920;SDS011;61064;51.654;5.476;2022-09-13T05:23:05;12.27;;;7.33;;
72920;SDS011;61064;51.654;5.476;2022-09-13T05:25:31;13.63;;;7.40;;
72920;SDS011;61064;51.654;5.476;2022-09-13T05:27:56;13.07;;;7.70;;
72920;SDS011;61064;51.654;5.476;2022-09-13T05:30:22;16.17;;;8.00;;
72920;SDS011;61064;51.654;5.476;2022-09-13T05:32:47;13.03;;;7.10;;
72920;SDS011;61064;51.654;5.476;2022-09-13T05:35:12;13.87;;;7.30;;
72920;SDS011;61064;51.654;5.476;2022-09-13T05:37:38;14.43;;;7.57;;
72920;SDS011;61064;51.654;5.476;2022-09-13T05:40:03;14.07;;;7.50;;
72920;SDS011;61064;51.654;5.476;2022-09-13T05:42:29;15.87;;;8.37;;
72920;SDS011;61064;51.654;5.476;2022-09-13T05:44:54;15.60;;;7.47;;
72920;SDS011;61064;51.654;5.476;2022-09-13T05:47:21;14.48;;;7.65;;
72920;SDS011;61064;51.654;5.476;2022-09-13T05:49:47;20.20;;;7.80;;
72920;SDS011;61064;51.654;5.476;2022-09-13T05:52:12;14.17;;;8.03;;
72920;SDS011;61064;51.654;5.476;2022-09-13T05:54:37;16.23;;;7.50;;
72920;SDS011;61064;51.654;5.476;2022-09-13T05:57:03;16.33;;;7.93;;
72920;SDS011;61064;51.654;5.476;2022-09-13T05:59:28;15.73;;;8.43;;
72920;SDS011;61064;51.654;5.476;2022-09-13T06:01:53;16.05;;;7.88;;
72920;SDS011;61064;51.654;5.476;2022-09-13T06:04:19;16.23;;;8.40;;
72920;SDS011;61064;51.654;5.476;2022-09-13T06:06:44;15.00;;;8.10;;
72920;SDS011;61064;51.654;5.476;2022-09-13T06:09:10;15.87;;;8.30;;
72920;SDS011;61064;51.654;5.476;2022-09-13T06:11:37;15.25;;;8.10;;
72920;SDS011;61064;51.654;5.476;2022-09-13T06:14:02;16.10;;;8.07;;
72920;SDS011;61064;51.654;5.476;2022-09-13T06:16:28;15.82;;;8.07;;
72920;SDS011;61064;51.654;5.476;2022-09-13T06:18:53;15.70;;;9.00;;
72920;SDS011;61064;51.654;5.476;2022-09-13T06:21:19;17.33;;;8.60;;
72920;SDS011;61064;51.654;5.476;2022-09-13T06:23:47;15.00;;;9.15;;
72920;SDS011;61064;51.654;5.476;2022-09-13T06:26:22;16.63;;;8.63;;
72920;SDS011;61064;51.654;5.476;2022-09-13T06:28:49;14.63;;;8.70;;
72920;SDS011;61064;51.654;5.476;2022-09-13T06:31:16;15.40;;;8.83;;
72920;SDS011;61064;51.654;5.476;2022-09-13T06:33:43;14.63;;;8.55;;
72920;SDS011;61064;51.654;5.476;2022-09-13T06:38:37;15.65;;;8.82;;
72920;SDS011;61064;51.654;5.476;2022-09-13T06:41:04;13.70;;;8.77;;
72920;SDS011;61064;51.654;5.476;2022-09-13T06:43:31;15.13;;;8.77;;
72920;SDS011;61064;51.654;5.476;2022-09-13T06:45:58;15.82;;;9.32;;
72920;SDS011;61064;51.654;5.476;2022-09-13T06:48:25;16.60;;;9.57;;
72920;SDS011;61064;51.654;5.476;2022-09-13T06:50:50;17.20;;;9.33;;
72920;SDS011;61064;51.654;5.476;2022-09-13T06:53:15;16.10;;;9.33;;
72920;SDS011;61064;51.654;5.476;2022-09-13T06:55:41;17.10;;;9.87;;
72920;SDS011;61064;51.654;5.476;2022-09-13T06:58:06;16.02;;;9.80;;
72920;SDS011;61064;51.654;5.476;2022-09-13T07:00:31;16.30;;;10.20;;
72920;SDS011;61064;51.654;5.476;2022-09-13T07:02:56;17.73;;;9.93;;
72920;SDS011;61064;51.654;5.476;2022-09-13T07:05:22;16.20;;;10.17;;
72920;SDS011;61064;51.654;5.476;2022-09-13T07:07:47;17.47;;;10.47;;
72920;SDS011;61064;51.654;5.476;2022-09-13T07:10:12;19.30;;;10.80;;
72920;SDS011;61064;51.654;5.476;2022-09-13T07:12:41;17.80;;;10.90;;
72920;SDS011;61064;51.654;5.476;2022-09-13T07:15:07;19.70;;;11.02;;
72920;SDS011;61064;51.654;5.476;2022-09-13T07:17:32;17.70;;;10.73;;
72920;SDS011;61064;51.654;5.476;2022-09-13T07:19:58;17.47;;;10.73;;
72920;SDS011;61064;51.654;5.476;2022-09-13T07:22:23;17.37;;;10.97;;
72920;SDS011;61064;51.654;5.476;2022-09-13T07:24:51;19.90;;;11.07;;
72920;SDS011;61064;51.654;5.476;2022-09-13T07:27:17;18.90;;;11.13;;
72920;SDS011;61064;51.654;5.476;2022-09-13T07:29:43;20.87;;;11.70;;
72920;SDS011;61064;51.654;5.476;2022-09-13T07:32:08;18.37;;;11.77;;
72920;SDS011;61064;51.654;5.476;2022-09-13T07:34:33;21.30;;;12.17;;
72920;SDS011;61064;51.654;5.476;2022-09-13T07:36:59;22.70;;;12.07;;
72920;SDS011;61064;51.654;5.476;2022-09-13T07:39:25;18.03;;;11.20;;
72920;SDS011;61064;51.654;5.476;2022-09-13T07:41:50;21.27;;;12.70;;
72920;SDS011;61064;51.654;5.476;2022-09-13T07:44:17;20.40;;;12.77;;
72920;SDS011;61064;51.654;5.476;2022-09-13T07:46:43;22.17;;;13.60;;
72920;SDS011;61064;51.654;5.476;2022-09-13T07:49:09;23.00;;;12.90;;
72920;SDS011;61064;51.654;5.476;2022-09-13T07:51:40;23.75;;;13.43;;
72920;SDS011;61064;51.654;5.476;2022-09-13T07:54:11;20.02;;;13.55;;
72920;SDS011;61064;51.654;5.476;2022-09-13T07:56:39;21.95;;;13.82;;
72920;SDS011;61064;51.654;5.476;2022-09-13T07:59:06;22.80;;;14.30;;
72920;SDS011;61064;51.654;5.476;2022-09-13T08:01:41;23.17;;;14.63;;
72920;SDS011;61064;51.654;5.476;2022-09-13T08:04:11;26.33;;;15.85;;
72920;SDS011;61064;51.654;5.476;2022-09-13T08:06:38;26.55;;;16.70;;
72920;SDS011;61064;51.654;5.476;2022-09-13T08:09:05;26.75;;;15.02;;
72920;SDS011;61064;51.654;5.476;2022-09-13T08:11:37;25.97;;;15.27;;
72920;SDS011;61064;51.654;5.476;2022-09-13T08:14:10;25.42;;;16.23;;
72920;SDS011;61064;51.654;5.476;2022-09-13T08:16:37;26.00;;;16.52;;
72920;SDS011;61064;51.654;5.476;2022-09-13T08:19:04;25.52;;;16.48;;
72920;SDS011;61064;51.654;5.476;2022-09-13T08:21:31;24.50;;;15.57;;
72920;SDS011;61064;51.654;5.476;2022-09-13T08:23:58;24.73;;;14.77;;
72920;SDS011;61064;51.654;5.476;2022-09-13T08:26:25;26.83;;;15.15;;
72920;SDS011;61064;51.654;5.476;2022-09-13T08:28:55;24.23;;;14.85;;
72920;SDS011;61064;51.654;5.476;2022-09-13T08:31:22;24.13;;;14.45;;
72920;SDS011;61064;51.654;5.476;2022-09-13T08:33:48;21.70;;;14.27;;
72920;SDS011;61064;51.654;5.476;2022-09-13T08:36:14;20.97;;;14.07;;
72920;SDS011;61064;51.654;5.476;2022-09-13T08:38:47;22.25;;;13.70;;
72920;SDS011;61064;51.654;5.476;2022-09-13T08:41:28;21.07;;;13.80;;
72920;SDS011;61064;51.654;5.476;2022-09-13T08:44:12;25.88;;;13.98;;
72920;SDS011;61064;51.654;5.476;2022-09-13T08:46:47;23.38;;;14.27;;
72920;SDS011;61064;51.654;5.476;2022-09-13T08:49:21;23.63;;;14.55;;
72920;SDS011;61064;51.654;5.476;2022-09-13T08:51:51;21.75;;;13.73;;
72920;SDS011;61064;51.654;5.476;2022-09-13T08:54:20;20.13;;;12.37;;
72920;SDS011;61064;51.654;5.476;2022-09-13T09:04:49;21.63;;;12.60;;
72920;SDS011;61064;51.654;5.476;2022-09-13T09:07:23;20.90;;;12.80;;
72920;SDS011;61064;51.654;5.476;2022-09-13T09:12:19;19.00;;;11.30;;
72920;SDS011;61064;51.654;5.476;2022-09-13T09:17:57;22.30;;;12.55;;
72920;SDS011;61064;51.654;5.476;2022-09-13T09:20:25;19.90;;;12.10;;
72920;SDS011;61064;51.654;5.476;2022-09-13T09:22:52;20.90;;;11.13;;
72920;SDS011;61064;51.654;5.476;2022-09-13T09:25:22;18.23;;;10.95;;
72920;SDS011;61064;51.654;5.476;2022-09-13T09:27:50;19.73;;;12.55;;
72920;SDS011;61064;51.654;5.476;2022-09-13T09:30:17;22.25;;;12.75;;
72920;SDS011;61064;51.654;5.476;2022-09-13T09:40:52;15.97;;;10.27;;
72920;SDS011;61064;51.654;5.476;2022-09-13T09:43:22;18.95;;;10.30;;
72920;SDS011;61064;51.654;5.476;2022-09-13T09:45:54;16.17;;;10.60;;
72920;SDS011;61064;51.654;5.476;2022-09-13T09:48:23;15.40;;;9.50;;
72920;SDS011;61064;51.654;5.476;2022-09-13T09:50:55;13.48;;;8.63;;
72920;SDS011;61064;51.654;5.476;2022-09-13T09:53:29;13.50;;;7.80;;
72920;SDS011;61064;51.654;5.476;2022-09-13T09:56:03;14.40;;;8.50;;
72920;SDS011;61064;51.654;5.476;2022-09-13T09:58:41;13.98;;;7.57;;
72920;SDS011;61064;51.654;5.476;2022-09-13T10:01:51;13.20;;;8.43;;
72920;SDS011;61064;51.654;5.476;2022-09-13T10:06:32;13.18;;;6.30;;
72920;SDS011;61064;51.654;5.476;2022-09-13T10:09:00;13.00;;;6.40;;
72920;SDS011;61064;51.654;5.476;2022-09-13T10:17:01;11.35;;;6.43;;
72920;SDS011;61064;51.654;5.476;2022-09-13T10:19:31;12.82;;;7.32;;
72920;SDS011;61064;51.654;5.476;2022-09-13T10:22:03;11.38;;;6.70;;
72920;SDS011;61064;51.654;5.476;2022-09-13T10:24:35;12.75;;;6.80;;
72920;SDS011;61064;51.654;5.476;2022-09-13T10:27:00;15.07;;;8.27;;
72920;SDS011;61064;51.654;5.476;2022-09-13T10:29:28;13.98;;;7.10;;
72920;SDS011;61064;51.654;5.476;2022-09-13T10:31:55;10.30;;;6.30;;
72920;SDS011;61064;51.654;5.476;2022-09-13T10:34:31;12.02;;;6.78;;
72920;SDS011;61064;51.654;5.476;2022-09-13T10:37:01;13.32;;;6.60;;
72920;SDS011;61064;51.654;5.476;2022-09-13T10:39:30;23.45;;;15.25;;
72920;SDS011;61064;51.654;5.476;2022-09-13T10:42:00;12.88;;;6.40;;
72920;SDS011;61064;51.654;5.476;2022-09-13T10:47:18;10.27;;;5.40;;
72920;SDS011;61064;51.654;5.476;2022-09-13T10:49:47;12.57;;;6.75;;
72920;SDS011;61064;51.654;5.476;2022-09-13T10:52:27;12.52;;;6.28;;
72920;SDS011;61064;51.654;5.476;2022-09-13T11:00:22;10.13;;;5.20;;
72920;SDS011;61064;51.654;5.476;2022-09-13T11:28:04;12.93;;;6.50;;
72920;SDS011;61064;51.654;5.476;2022-09-13T11:30:47;11.82;;;6.95;;
72920;SDS011;61064;51.654;5.476;2022-09-13T11:36:21;11.35;;;5.80;;
72920;SDS011;61064;51.654;5.476;2022-09-13T11:39:02;10.37;;;6.20;;
72920;SDS011;61064;51.654;5.476;2022-09-13T11:41:49;9.38;;;6.10;;
72920;SDS011;61064;51.654;5.476;2022-09-13T11:53:26;12.03;;;6.17;;
72920;SDS011;61064;51.654;5.476;2022-09-13T11:56:05;11.07;;;6.28;;
72920;SDS011;61064;51.654;5.476;2022-09-13T11:58:36;11.38;;;6.40;;
72920;SDS011;61064;51.654;5.476;2022-09-13T12:01:09;11.30;;;6.15;;
72920;SDS011;61064;51.654;5.476;2022-09-13T12:03:42;12.75;;;6.88;;
72920;SDS011;61064;51.654;5.476;2022-09-13T12:06:20;11.63;;;6.73;;
72920;SDS011;61064;51.654;5.476;2022-09-13T12:09:26;11.98;;;6.70;;
72920;SDS011;61064;51.654;5.476;2022-09-13T12:11:47;11.35;;;6.03;;
72920;SDS011;61064;51.654;5.476;2022-09-13T12:14:20;11.70;;;7.00;;
72920;SDS011;61064;51.654;5.476;2022-09-13T12:16:50;12.48;;;6.68;;
72920;SDS011;61064;51.654;5.476;2022-09-13T12:19:24;11.93;;;6.27;;
72920;SDS011;61064;51.654;5.476;2022-09-13T12:21:53;11.02;;;5.25;;
72920;SDS011;61064;51.654;5.476;2022-09-13T12:24:33;10.80;;;6.05;;
72920;SDS011;61064;51.654;5.476;2022-09-13T12:29:51;11.43;;;5.65;;
72920;SDS011;61064;51.654;5.476;2022-09-13T12:32:37;10.20;;;4.87;;
72920;SDS011;61064;51.654;5.476;2022-09-13T12:46:35;9.00;;;3.33;;
72920;SDS011;61064;51.654;5.476;2022-09-13T12:51:51;8.47;;;3.30;;
72920;SDS011;61064;51.654;5.476;2022-09-13T12:54:51;8.43;;;3.10;;
72920;SDS011;61064;51.654;5.476;2022-09-13T12:57:55;7.47;;;2.60;;
72920;SDS011;61064;51.654;5.476;2022-09-13T13:00:47;6.68;;;2.67;;
72920;SDS011;61064;51.654;5.476;2022-09-13T13:03:34;8.15;;;2.60;;
72920;SDS011;61064;51.654;5.476;2022-09-13T13:08:57;8.85;;;2.85;;
72920;SDS011;61064;51.654;5.476;2022-09-13T13:11:26;7.68;;;3.15;;
72920;SDS011;61064;51.654;5.476;2022-09-13T13:13:57;6.28;;;2.38;;
72920;SDS011;61064;51.654;5.476;2022-09-13T13:16:27;6.70;;;2.13;;
72920;SDS011;61064;51.654;5.476;2022-09-13T13:18:57;6.40;;;1.90;;
72920;SDS011;61064;51.654;5.476;2022-09-13T13:21:25;7.05;;;2.40;;
72920;SDS011;61064;51.654;5.476;2022-09-13T13:26:44;5.75;;;1.90;;
72920;SDS011;61064;51.654;5.476;2022-09-13T13:36:46;6.60;;;2.77;;
72920;SDS011;61064;51.654;5.476;2022-09-13T13:46:50;5.37;;;2.00;;
72920;SDS011;61064;51.654;5.476;2022-09-13T13:57:34;5.78;;;1.92;;
72920;SDS011;61064;51.654;5.476;2022-09-13T14:02:52;6.57;;;1.52;;
72920;SDS011;61064;51.654;5.476;2022-09-13T14:05:32;6.33;;;1.40;;
72920;SDS011;61064;51.654;5.476;2022-09-13T14:14:08;3.85;;;1.10;;
72920;SDS011;61064;51.654;5.476;2022-09-13T14:16:54;4.88;;;1.30;;
72920;SDS011;61064;51.654;5.476;2022-09-13T14:19:40;4.37;;;1.10;;
72920;SDS011;61064;51.654;5.476;2022-09-13T14:22:24;4.53;;;0.82;;
72920;SDS011;61064;51.654;5.476;2022-09-13T14:29:51;5.22;;;1.30;;
72920;SDS011;61064;51.654;5.476;2022-09-13T14:32:21;5.80;;;1.50;;
72920;SDS011;61064;51.654;5.476;2022-09-13T14:34:53;4.50;;;1.30;;
72920;SDS011;61064;51.654;5.476;2022-09-13T14:37:36;4.97;;;1.30;;
72920;SDS011;61064;51.654;5.476;2022-09-13T14:42:41;4.68;;;1.42;;
72920;SDS011;61064;51.654;5.476;2022-09-13T14:45:11;4.80;;;1.40;;
72920;SDS011;61064;51.654;5.476;2022-09-13T14:47:56;5.20;;;1.35;;
72920;SDS011;61064;51.654;5.476;2022-09-13T14:50:31;5.07;;;1.30;;
72920;SDS011;61064;51.654;5.476;2022-09-13T14:53:00;4.50;;;1.30;;
72920;SDS011;61064;51.654;5.476;2022-09-13T14:56:10;4.80;;;1.40;;
72920;SDS011;61064;51.654;5.476;2022-09-13T14:58:21;5.27;;;1.50;;
72920;SDS011;61064;51.654;5.476;2022-09-13T15:01:02;5.97;;;1.55;;
72920;SDS011;61064;51.654;5.476;2022-09-13T15:03:31;5.38;;;1.75;;
72920;SDS011;61064;51.654;5.476;2022-09-13T15:06:00;6.40;;;1.57;;
72920;SDS011;61064;51.654;5.476;2022-09-13T15:10:59;5.78;;;1.60;;
72920;SDS011;61064;51.654;5.476;2022-09-13T15:13:26;7.68;;;1.70;;
72920;SDS011;61064;51.654;5.476;2022-09-13T15:15:52;8.47;;;1.60;;
72920;SDS011;61064;51.654;5.476;2022-09-13T15:20:45;7.30;;;1.80;;
72920;SDS011;61064;51.654;5.476;2022-09-13T15:23:19;4.97;;;1.60;;
72920;SDS011;61064;51.654;5.476;2022-09-13T15:25:56;6.15;;;1.60;;
72920;SDS011;61064;51.654;5.476;2022-09-13T15:28:56;6.25;;;1.50;;
72920;SDS011;61064;51.654;5.476;2022-09-13T15:31:28;5.88;;;1.60;;
72920;SDS011;61064;51.654;5.476;2022-09-13T15:36:44;6.75;;;1.60;;
72920;SDS011;61064;51.654;5.476;2022-09-13T15:39:15;7.43;;;1.83;;
72920;SDS011;61064;51.654;5.476;2022-09-13T15:41:52;5.53;;;1.65;;
72920;SDS011;61064;51.654;5.476;2022-09-13T15:44:19;5.72;;;1.63;;
72920;SDS011;61064;51.654;5.476;2022-09-13T15:46:48;7.97;;;1.60;;
72920;SDS011;61064;51.654;5.476;2022-09-13T15:49:22;6.93;;;1.70;;
72920;SDS011;61064;51.654;5.476;2022-09-13T15:52:00;5.75;;;1.80;;
72920;SDS011;61064;51.654;5.476;2022-09-13T15:54:34;6.18;;;1.80;;
72920;SDS011;61064;51.654;5.476;2022-09-13T15:57:05;7.22;;;2.05;;
72920;SDS011;61064;51.654;5.476;2022-09-13T15:59:32;5.40;;;1.80;;
72920;SDS011;61064;51.654;5.476;2022-09-13T16:01:58;5.53;;;2.13;;
72920;SDS011;61064;51.654;5.476;2022-09-13T16:04:24;6.40;;;1.80;;
72920;SDS011;61064;51.654;5.476;2022-09-13T16:06:50;6.20;;;1.80;;
72920;SDS011;61064;51.654;5.476;2022-09-13T16:09:16;5.10;;;1.60;;
72920;SDS011;61064;51.654;5.476;2022-09-13T16:11:43;5.88;;;1.88;;
72920;SDS011;61064;51.654;5.476;2022-09-13T16:14:08;6.33;;;1.70;;
72920;SDS011;61064;51.654;5.476;2022-09-13T16:16:33;6.43;;;1.83;;
72920;SDS011;61064;51.654;5.476;2022-09-13T16:18:59;4.82;;;1.80;;
72920;SDS011;61064;51.654;5.476;2022-09-13T16:21:24;5.77;;;1.77;;
72920;SDS011;61064;51.654;5.476;2022-09-13T16:23:50;4.77;;;1.50;;
72920;SDS011;61064;51.654;5.476;2022-09-13T16:26:15;5.37;;;1.70;;
72920;SDS011;61064;51.654;5.476;2022-09-13T16:28:40;5.50;;;1.60;;
72920;SDS011;61064;51.654;5.476;2022-09-13T16:31:06;8.53;;;2.10;;
72920;SDS011;61064;51.654;5.476;2022-09-13T16:33:31;7.17;;;1.80;;
72920;SDS011;61064;51.654;5.476;2022-09-13T16:35:57;6.45;;;1.88;;
72920;SDS011;61064;51.654;5.476;2022-09-13T16:38:22;5.90;;;2.20;;
72920;SDS011;61064;51.654;5.476;2022-09-13T16:40:48;7.00;;;1.83;;
72920;SDS011;61064;51.654;5.476;2022-09-13T16:43:13;7.20;;;2.00;;
72920;SDS011;61064;51.654;5.476;2022-09-13T16:45:39;7.80;;;1.97;;
72920;SDS011;61064;51.654;5.476;2022-09-13T16:48:06;6.70;;;1.95;;
72920;SDS011;61064;51.654;5.476;2022-09-13T16:50:32;5.43;;;1.70;;
72920;SDS011;61064;51.654;5.476;2022-09-13T16:52:58;5.40;;;1.70;;
72920;SDS011;61064;51.654;5.476;2022-09-13T16:55:23;7.25;;;1.60;;
72920;SDS011;61064;51.654;5.476;2022-09-13T16:57:50;6.27;;;1.40;;
72920;SDS011;61064;51.654;5.476;2022-09-13T17:00:16;5.63;;;1.42;;
72920;SDS011;61064;51.654;5.476;2022-09-13T17:02:44;7.28;;;1.40;;
72920;SDS011;61064;51.654;5.476;2022-09-13T17:05:10;5.60;;;1.30;;
72920;SDS011;61064;51.654;5.476;2022-09-13T17:07:36;5.65;;;1.30;;
72920;SDS011;61064;51.654;5.476;2022-09-13T17:10:04;9.20;;;1.30;;
72920;SDS011;61064;51.654;5.476;2022-09-13T17:12:31;7.18;;;1.40;;
72920;SDS011;61064;51.654;5.476;2022-09-13T17:14:57;6.07;;;1.23;;
72920;SDS011;61064;51.654;5.476;2022-09-13T17:17:23;6.83;;;1.40;;
72920;SDS011;61064;51.654;5.476;2022-09-13T17:19:49;6.28;;;1.40;;
72920;SDS011;61064;51.654;5.476;2022-09-13T17:22:17;7.85;;;1.27;;
72920;SDS011;61064;51.654;5.476;2022-09-13T17:24:43;8.23;;;1.40;;
72920;SDS011;61064;51.654;5.476;2022-09-13T17:27:09;6.73;;;1.57;;
72920;SDS011;61064;51.654;5.476;2022-09-13T17:29:35;7.80;;;1.45;;
72920;SDS011;61064;51.654;5.476;2022-09-13T17:32:01;6.23;;;1.50;;
72920;SDS011;61064;51.654;5.476;2022-09-13T17:34:27;8.82;;;1.30;;
72920;SDS011;61064;51.654;5.476;2022-09-13T17:36:54;6.95;;;2.00;;
72920;SDS011;61064;51.654;5.476;2022-09-13T17:39:21;9.23;;;1.90;;
72920;SDS011;61064;51.654;5.476;2022-09-13T17:41:46;9.43;;;2.10;;
72920;SDS011;61064;51.654;5.476;2022-09-13T17:44:15;8.50;;;1.67;;
72920;SDS011;61064;51.654;5.476;2022-09-13T17:46:41;9.40;;;1.40;;
72920;SDS011;61064;51.654;5.476;2022-09-13T17:49:06;5.27;;;1.03;;
72920;SDS011;61064;51.654;5.476;2022-09-13T17:51:32;6.07;;;1.20;;
72920;SDS011;61064;51.654;5.476;2022-09-13T17:53:59;7.78;;;1.50;;
72920;SDS011;61064;51.654;5.476;2022-09-13T17:56:28;9.02;;;2.00;;
72920;SDS011;61064;51.654;5.476;2022-09-13T17:59:03;9.13;;;1.92;;
72920;SDS011;61064;51.654;5.476;2022-09-13T18:01:40;8.77;;;1.63;;
72920;SDS011;61064;51.654;5.476;2022-09-13T18:04:07;6.90;;;1.45;;
72920;SDS011;61064;51.654;5.476;2022-09-13T18:06:34;7.47;;;1.80;;
72920;SDS011;61064;51.654;5.476;2022-09-13T18:09:02;7.53;;;1.80;;
72920;SDS011;61064;51.654;5.476;2022-09-13T18:11:27;6.20;;;1.60;;